createdAt,value
2018-12-26T00:00:01.039Z,6.60
2018-12-26T00:02:41.492Z,6.50
2018-12-26T00:05:21.993Z,6.50
2018-12-26T00:08:02.225Z,6.40
2018-12-26T00:10:42.838Z,6.50
2018-12-26T00:13:23.477Z,6.50
2018-12-26T00:16:04.542Z,6.40
2018-12-26T00:18:45.529Z,6.40
2018-12-26T00:21:26.261Z,6.30
2018-12-26T00:24:06.979Z,6.30
2018-12-26T00:26:47.585Z,6.30
2018-12-26T00:29:28.137Z,6.30
2018-12-26T00:32:08.748Z,6.20
2018-12-26T00:34:49.369Z,6.20
2018-12-26T00:37:30.300Z,6.20
2018-12-26T00:40:11.142Z,6.20
2018-12-26T00:42:51.761Z,6.20
2018-12-26T00:45:32.219Z,6.00
2018-12-26T00:48:12.950Z,6.00
2018-12-26T00:50:53.900Z,6.00
2018-12-26T00:53:34.783Z,6.00
2018-12-26T00:56:15.500Z,6.00
2018-12-26T00:58:56.321Z,6.00
2018-12-26T01:01:37.159Z,5.90
2018-12-26T01:04:17.920Z,5.90
2018-12-26T01:06:58.732Z,6.00
2018-12-26T01:09:39.333Z,6.00
2018-12-26T01:12:20.276Z,5.90
2018-12-26T01:15:01.157Z,6.00
2018-12-26T01:17:41.749Z,6.00
2018-12-26T01:20:22.821Z,6.00
2018-12-26T01:23:03.569Z,6.10
2018-12-26T01:25:44.473Z,6.00
2018-12-26T01:28:25.488Z,5.90
2018-12-26T01:31:05.929Z,6.00
2018-12-26T01:33:46.534Z,5.90
2018-12-26T01:36:27.154Z,6.00
2018-12-26T01:39:07.692Z,6.00
2018-12-26T01:41:48.525Z,6.00
2018-12-26T01:44:29.207Z,6.00
2018-12-26T01:47:10.066Z,5.90
2018-12-26T01:49:50.742Z,6.00
2018-12-26T01:52:31.446Z,6.00
2018-12-26T01:55:12.157Z,6.00
2018-12-26T01:57:53.173Z,6.10
2018-12-26T02:00:33.946Z,6.20
2018-12-26T02:03:15.061Z,6.20
2018-12-26T02:05:55.593Z,6.20
2018-12-26T02:08:36.209Z,6.10
2018-12-26T02:11:16.649Z,6.10
2018-12-26T02:13:57.605Z,6.10
2018-12-26T02:16:38.309Z,6.00
2018-12-26T02:19:19.168Z,6.00
2018-12-26T02:21:59.953Z,6.10
2018-12-26T02:27:23.813Z,6.10
2018-12-26T02:30:04.135Z,6.00
2018-12-26T02:32:44.354Z,6.10
2018-12-26T02:35:25.297Z,6.20
2018-12-26T02:38:06.056Z,6.10
2018-12-26T02:40:46.857Z,6.10
2018-12-26T02:43:27.566Z,6.00
2018-12-26T02:46:08.111Z,5.90
2018-12-26T02:48:48.741Z,6.00
2018-12-26T02:51:29.502Z,6.00
2018-12-26T02:54:10.455Z,6.00
2018-12-26T02:56:51.258Z,6.10
2018-12-26T02:59:32.289Z,6.00
2018-12-26T03:04:55.001Z,6.10
2018-12-26T03:07:35.407Z,6.10
2018-12-26T03:10:16.050Z,6.10
2018-12-26T03:12:56.726Z,6.10
2018-12-26T03:15:37.406Z,6.10
2018-12-26T03:18:17.793Z,6.20
2018-12-26T03:20:58.234Z,6.10
2018-12-26T03:23:38.870Z,6.10
2018-12-26T03:26:19.897Z,6.10
2018-12-26T03:29:00.705Z,6.20
2018-12-26T03:34:22.959Z,6.20
2018-12-26T03:37:03.931Z,6.20
2018-12-26T03:39:44.693Z,6.20
2018-12-26T03:42:25.423Z,6.10
2018-12-26T03:45:06.305Z,6.10
2018-12-26T03:47:46.829Z,6.10
2018-12-26T03:50:27.960Z,6.10
2018-12-26T03:53:08.556Z,6.00
2018-12-26T03:55:49.120Z,6.10
2018-12-26T03:58:29.969Z,6.20
2018-12-26T04:01:10.674Z,6.20
2018-12-26T04:03:51.564Z,6.10
2018-12-26T04:06:32.026Z,6.10
2018-12-26T04:09:12.958Z,6.10
2018-12-26T04:11:53.602Z,6.00
2018-12-26T04:14:34.231Z,6.00
2018-12-26T04:17:14.689Z,6.10
2018-12-26T04:19:55.016Z,6.10
2018-12-26T04:22:35.949Z,6.10
2018-12-26T04:25:16.956Z,6.10
2018-12-26T04:27:57.426Z,6.10
2018-12-26T04:30:37.921Z,6.10
2018-12-26T04:33:18.429Z,6.10
2018-12-26T04:35:58.849Z,6.00
2018-12-26T04:38:39.638Z,6.00
2018-12-26T04:41:19.992Z,6.10
2018-12-26T04:44:00.569Z,6.10
2018-12-26T04:46:41.326Z,6.00
2018-12-26T04:49:23.813Z,6.10
2018-12-26T04:52:04.796Z,6.10
2018-12-26T04:54:45.630Z,6.10
2018-12-26T04:57:26.332Z,6.20
2018-12-26T05:00:06.766Z,6.10
2018-12-26T05:02:47.479Z,6.20
2018-12-26T05:05:28.248Z,6.20
2018-12-26T05:08:09.181Z,6.20
2018-12-26T05:10:49.846Z,6.10
2018-12-26T05:13:30.685Z,6.10
2018-12-26T05:16:11.388Z,6.20
2018-12-26T05:18:52.253Z,6.20
2018-12-26T05:21:32.954Z,6.30
2018-12-26T05:24:13.919Z,6.20
2018-12-26T05:26:54.602Z,6.30
2018-12-26T05:29:35.195Z,6.30
2018-12-26T05:32:15.825Z,6.20
2018-12-26T05:34:56.629Z,6.40
2018-12-26T05:37:37.360Z,6.40
2018-12-26T05:40:18.135Z,6.40
2018-12-26T05:42:59.102Z,6.50
2018-12-26T05:45:39.960Z,6.40
2018-12-26T05:48:20.789Z,6.50
2018-12-26T05:51:01.604Z,6.50
2018-12-26T05:53:42.145Z,6.40
2018-12-26T05:56:22.594Z,6.50
2018-12-26T05:59:03.637Z,6.50
2018-12-26T06:01:44.170Z,6.60
2018-12-26T06:04:24.997Z,6.50
2018-12-26T06:07:05.622Z,6.60
2018-12-26T06:09:46.487Z,6.60
2018-12-26T06:12:27.386Z,6.60
2018-12-26T06:15:08.291Z,6.50
2018-12-26T06:17:49.141Z,6.50
2018-12-26T06:20:29.448Z,6.50
2018-12-26T06:23:10.125Z,6.60
2018-12-26T06:25:51.001Z,6.50
2018-12-26T06:28:31.753Z,6.70
2018-12-26T06:31:12.587Z,6.60
2018-12-26T06:33:53.074Z,6.70
2018-12-26T06:36:33.724Z,6.70
2018-12-26T06:39:14.498Z,6.80
2018-12-26T06:41:54.962Z,6.80
2018-12-26T06:44:35.475Z,6.90
2018-12-26T06:47:16.406Z,6.90
2018-12-26T06:49:56.767Z,6.80
2018-12-26T06:52:37.514Z,6.80
2018-12-26T06:55:18.138Z,6.70
2018-12-26T06:58:00.259Z,6.90
2018-12-26T07:00:40.763Z,6.90
2018-12-26T07:03:21.062Z,6.90
2018-12-26T07:06:01.971Z,6.80
2018-12-26T07:08:42.773Z,6.80
2018-12-26T07:11:23.998Z,6.80
2018-12-26T07:14:04.536Z,6.90
2018-12-26T07:16:44.853Z,6.90
2018-12-26T07:19:25.425Z,6.90
2018-12-26T07:22:06.213Z,6.90
2018-12-26T07:24:47.292Z,6.90
2018-12-26T07:27:28.327Z,6.70
2018-12-26T07:30:09.146Z,6.80
2018-12-26T07:32:50.182Z,6.90
2018-12-26T07:35:31.133Z,6.90
2018-12-26T07:38:12.006Z,6.90
2018-12-26T07:40:52.789Z,6.90
2018-12-26T07:43:33.729Z,6.90
2018-12-26T07:46:14.458Z,6.90
2018-12-26T07:48:55.361Z,6.90
2018-12-26T07:51:36.138Z,6.90
2018-12-26T07:54:16.887Z,6.90
2018-12-26T07:59:56.559Z,6.90
2018-12-26T08:02:37.324Z,6.90
2018-12-26T08:05:18.240Z,6.90
2018-12-26T08:07:58.773Z,6.90
2018-12-26T08:10:39.188Z,6.90
2018-12-26T08:13:19.758Z,7.00
2018-12-26T08:16:00.727Z,6.80
2018-12-26T08:18:41.509Z,6.90
2018-12-26T08:21:22.245Z,6.90
2018-12-26T08:24:04.562Z,6.90
2018-12-26T08:26:45.657Z,7.40
2018-12-26T08:29:26.154Z,7.30
2018-12-26T08:32:06.863Z,7.20
2018-12-26T08:34:47.668Z,7.20
2018-12-26T08:37:28.330Z,7.40
2018-12-26T08:42:51.351Z,7.50
2018-12-26T08:45:32.385Z,7.40
2018-12-26T08:48:13.249Z,7.40
2018-12-26T08:50:54.257Z,7.30
2018-12-26T08:53:34.976Z,7.30
2018-12-26T08:56:15.419Z,7.30
2018-12-26T08:58:55.943Z,7.20
2018-12-26T09:01:36.841Z,7.20
2018-12-26T09:04:17.689Z,7.30
2018-12-26T09:06:58.240Z,7.30
2018-12-26T09:09:38.933Z,7.30
2018-12-26T09:12:19.584Z,7.30
2018-12-26T09:14:59.960Z,7.30
2018-12-26T09:17:40.933Z,7.40
2018-12-26T09:20:23.394Z,7.40
2018-12-26T09:23:03.677Z,7.40
2018-12-26T09:25:44.439Z,7.40
2018-12-26T09:28:24.860Z,7.40
2018-12-26T09:31:05.568Z,7.40
2018-12-26T09:33:45.969Z,7.40
2018-12-26T09:36:26.926Z,7.50
2018-12-26T09:39:08.128Z,7.40
2018-12-26T09:41:48.598Z,7.50
2018-12-26T09:44:29.453Z,7.50
2018-12-26T09:47:09.889Z,7.40
2018-12-26T09:49:50.333Z,8.40
2018-12-26T09:52:32.755Z,8.40
2018-12-26T09:55:13.077Z,7.80
2018-12-26T09:57:53.928Z,7.40
2018-12-26T10:00:34.837Z,7.40
2018-12-26T10:03:15.775Z,7.30
2018-12-26T10:05:56.821Z,7.20
2018-12-26T10:08:37.582Z,7.20
2018-12-26T10:11:18.368Z,7.30
2018-12-26T10:13:59.118Z,7.30
2018-12-26T10:16:39.773Z,7.20
2018-12-26T10:19:20.153Z,7.20
2018-12-26T10:22:00.856Z,7.20
2018-12-26T10:24:41.607Z,7.20
2018-12-26T10:27:22.189Z,7.20
2018-12-26T10:30:02.728Z,7.20
2018-12-26T10:32:43.453Z,7.20
2018-12-26T10:35:23.825Z,7.20
2018-12-26T10:38:04.407Z,7.30
2018-12-26T10:40:45.209Z,7.20
2018-12-26T10:43:26.084Z,7.30
2018-12-26T10:46:06.576Z,7.30
2018-12-26T10:48:47.177Z,7.30
2018-12-26T10:51:27.778Z,7.30
2018-12-26T10:54:08.265Z,7.40
2018-12-26T10:56:49.188Z,7.40
2018-12-26T10:59:29.933Z,7.40
2018-12-26T11:02:10.853Z,8.40
2018-12-26T11:07:49.800Z,9.50
2018-12-26T11:10:30.312Z,9.10
2018-12-26T11:13:11.311Z,8.40
2018-12-26T11:15:53.122Z,8.20
2018-12-26T11:18:33.633Z,8.00
2018-12-26T11:21:14.250Z,7.90
2018-12-26T11:23:55.200Z,7.80
2018-12-26T11:26:36.117Z,7.80
2018-12-26T11:29:18.656Z,7.80
2018-12-26T11:31:59.487Z,7.80
2018-12-26T11:34:40.189Z,7.70
2018-12-26T11:37:20.965Z,7.60
2018-12-26T11:40:01.625Z,7.70
2018-12-26T11:42:42.504Z,7.70
2018-12-26T11:45:23.341Z,7.70
2018-12-26T11:48:04.381Z,7.80
2018-12-26T11:50:45.160Z,7.80
2018-12-26T11:53:26.193Z,7.80
2018-12-26T11:56:07.004Z,7.90
2018-12-26T11:58:47.916Z,7.90
2018-12-26T12:01:28.785Z,7.90
2018-12-26T12:04:09.948Z,7.80
2018-12-26T12:06:51.029Z,7.80
2018-12-26T12:09:31.660Z,7.80
2018-12-26T12:12:12.614Z,7.90
2018-12-26T12:14:52.861Z,7.90
2018-12-26T12:17:33.545Z,6.90
2018-12-26T12:20:14.438Z,7.90
2018-12-26T12:25:54.530Z,8.00
2018-12-26T12:28:35.417Z,8.00
2018-12-26T12:31:16.329Z,8.00
2018-12-26T12:33:57.273Z,8.00
2018-12-26T12:36:38.148Z,8.00
2018-12-26T12:39:18.626Z,8.20
2018-12-26T12:41:59.178Z,8.20
2018-12-26T12:44:39.734Z,8.10
2018-12-26T12:47:20.653Z,8.10
2018-12-26T12:50:01.467Z,8.10
2018-12-26T12:52:42.365Z,8.10
2018-12-26T12:55:23.491Z,8.10
2018-12-26T12:58:04.222Z,8.10
2018-12-26T13:00:44.629Z,8.10
2018-12-26T13:03:25.601Z,8.30
2018-12-26T13:06:06.296Z,8.10
2018-12-26T13:08:46.850Z,8.10
2018-12-26T13:11:27.517Z,8.10
2018-12-26T13:14:08.417Z,8.10
2018-12-26T13:16:49.177Z,8.10
2018-12-26T13:19:29.801Z,8.10
2018-12-26T13:22:10.406Z,8.10
2018-12-26T13:24:50.781Z,8.10
2018-12-26T13:27:31.720Z,8.10
2018-12-26T13:30:12.405Z,8.10
2018-12-26T13:32:52.977Z,8.10
2018-12-26T13:35:33.407Z,8.20
2018-12-26T13:38:14.081Z,8.10
2018-12-26T13:40:54.766Z,8.10
2018-12-26T13:43:35.202Z,8.10
2018-12-26T13:46:15.845Z,8.10
2018-12-26T13:48:56.817Z,8.00
2018-12-26T13:51:37.520Z,8.10
2018-12-26T13:54:18.069Z,8.20
2018-12-26T13:56:59.009Z,8.10
2018-12-26T13:59:39.738Z,8.10
2018-12-26T14:02:20.421Z,8.10
2018-12-26T14:05:01.331Z,8.20
2018-12-26T14:07:41.610Z,8.20
2018-12-26T14:10:22.141Z,8.20
2018-12-26T14:13:02.784Z,8.20
2018-12-26T14:15:43.481Z,8.20
2018-12-26T14:18:24.269Z,8.20
2018-12-26T14:21:05.149Z,8.20
2018-12-26T14:23:45.685Z,8.20
2018-12-26T14:26:26.409Z,8.20
2018-12-26T14:29:06.838Z,8.20
2018-12-26T14:31:47.514Z,8.20
2018-12-26T14:34:28.387Z,8.20
2018-12-26T14:37:09.066Z,8.20
2018-12-26T14:39:50.088Z,8.20
2018-12-26T14:42:30.940Z,8.30
2018-12-26T14:48:09.993Z,8.30
2018-12-26T14:50:50.598Z,8.40
2018-12-26T14:53:31.529Z,8.30
2018-12-26T14:56:11.961Z,8.30
2018-12-26T14:58:52.521Z,8.40
2018-12-26T15:01:32.943Z,8.40
2018-12-26T15:04:13.866Z,8.50
2018-12-26T15:06:54.402Z,8.50
2018-12-26T15:09:35.017Z,8.50
2018-12-26T15:12:15.517Z,8.50
2018-12-26T15:14:56.023Z,8.60
2018-12-26T15:17:36.555Z,8.60
2018-12-26T15:20:17.288Z,8.60
2018-12-26T15:22:58.001Z,8.60
2018-12-26T15:25:38.881Z,8.60
2018-12-26T15:28:19.964Z,8.60
2018-12-26T15:31:00.844Z,8.60
2018-12-26T15:33:41.707Z,8.60
2018-12-26T15:36:22.482Z,8.60
2018-12-26T15:39:03.738Z,8.60
2018-12-26T15:41:44.545Z,8.60
2018-12-26T15:44:25.339Z,8.70
2018-12-26T15:47:06.258Z,8.60
2018-12-26T15:49:47.162Z,8.60
2018-12-26T15:52:28.132Z,8.60
2018-12-26T15:55:08.723Z,8.70
2018-12-26T15:57:49.497Z,8.70
2018-12-26T16:00:37.367Z,8.70
2018-12-26T16:03:12.463Z,8.70
2018-12-26T16:05:53.376Z,8.60
2018-12-26T16:08:34.010Z,8.60
2018-12-26T16:11:14.394Z,8.60
2018-12-26T16:13:54.844Z,8.60
2018-12-26T16:16:35.309Z,8.60
2018-12-26T16:19:16.065Z,8.70
2018-12-26T16:21:56.945Z,8.70
2018-12-26T16:24:37.482Z,8.60
2018-12-26T16:27:18.238Z,8.60
2018-12-26T16:29:59.356Z,8.60
2018-12-26T16:32:40.189Z,8.60
2018-12-26T16:35:20.638Z,8.60
2018-12-26T16:38:01.759Z,8.70
2018-12-26T16:43:55.072Z,8.70
2018-12-26T16:46:35.808Z,8.70
2018-12-26T16:49:16.647Z,8.70
2018-12-26T16:51:57.173Z,8.70
2018-12-26T16:54:37.516Z,8.60
2018-12-26T16:57:18.376Z,8.70
2018-12-26T16:59:59.064Z,8.70
2018-12-26T17:02:40.172Z,8.70
2018-12-26T17:05:20.493Z,8.70
2018-12-26T17:08:00.953Z,8.70
2018-12-26T17:10:41.693Z,8.70
2018-12-26T17:13:22.240Z,8.60
2018-12-26T17:16:02.721Z,8.70
2018-12-26T17:18:43.331Z,8.70
2018-12-26T17:21:23.657Z,8.70
2018-12-26T17:24:05.428Z,8.60
2018-12-26T17:26:46.112Z,8.70
2018-12-26T17:29:26.894Z,8.70
2018-12-26T17:32:07.673Z,8.70
2018-12-26T17:34:48.744Z,8.70
2018-12-26T17:37:29.576Z,8.70
2018-12-26T17:40:10.376Z,8.70
2018-12-26T17:42:51.431Z,8.70
2018-12-26T17:45:32.384Z,8.70
2018-12-26T17:48:12.667Z,8.60
2018-12-26T17:50:52.885Z,8.70
2018-12-26T17:53:33.952Z,8.60
2018-12-26T17:56:14.790Z,8.70
2018-12-26T17:58:55.487Z,8.70
2018-12-26T18:01:35.688Z,8.60
2018-12-26T18:04:16.366Z,8.60
2018-12-26T18:06:56.942Z,8.70
2018-12-26T18:09:37.746Z,8.70
2018-12-26T18:12:18.162Z,8.70
2018-12-26T18:14:58.990Z,8.70
2018-12-26T18:17:39.875Z,8.70
2018-12-26T18:20:20.054Z,8.60
2018-12-26T18:23:01.167Z,8.60
2018-12-26T18:28:54.227Z,9.80
2018-12-26T18:31:36.816Z,9.00
2018-12-26T18:34:18.025Z,8.70
2018-12-26T18:36:58.567Z,8.70
2018-12-26T18:39:39.515Z,8.50
2018-12-26T18:42:20.463Z,8.60
2018-12-26T18:47:43.154Z,8.30
2018-12-26T18:50:24.128Z,8.40
2018-12-26T18:53:05.013Z,8.40
2018-12-26T18:55:45.715Z,8.30
2018-12-26T18:58:25.863Z,8.30
2018-12-26T19:01:06.650Z,8.20
2018-12-26T19:03:47.818Z,8.20
2018-12-26T19:06:28.727Z,8.20
2018-12-26T19:09:09.131Z,8.10
2018-12-26T19:11:50.157Z,8.10
2018-12-26T19:14:30.349Z,8.10
2018-12-26T19:17:11.325Z,8.10
2018-12-26T19:19:51.981Z,8.00
2018-12-26T19:22:32.493Z,8.00
2018-12-26T19:25:13.198Z,8.00
2018-12-26T19:27:54.357Z,8.00
2018-12-26T19:30:35.093Z,8.00
2018-12-26T19:33:15.809Z,8.10
2018-12-26T19:35:56.654Z,8.10
2018-12-26T19:38:37.304Z,8.10
2018-12-26T19:41:18.194Z,8.10
2018-12-26T19:43:58.989Z,8.10
2018-12-26T19:46:39.905Z,8.60
2018-12-26T19:49:20.327Z,9.00
2018-12-26T19:52:01.126Z,9.60
2018-12-26T19:54:41.806Z,9.70
2018-12-26T19:57:22.605Z,9.70
2018-12-26T20:00:03.113Z,8.80
2018-12-26T20:02:43.564Z,8.50
2018-12-26T20:05:24.317Z,8.40
2018-12-26T20:08:04.817Z,8.10
2018-12-26T20:10:45.313Z,8.10
2018-12-26T20:13:26.001Z,8.00
2018-12-26T20:16:06.893Z,8.00
2018-12-26T20:18:47.777Z,7.90
2018-12-26T20:21:28.259Z,7.80
2018-12-26T20:27:07.861Z,7.70
2018-12-26T20:29:48.561Z,7.70
2018-12-26T20:32:28.740Z,7.60
2018-12-26T20:35:09.485Z,7.60
2018-12-26T20:37:50.282Z,7.70
2018-12-26T20:40:30.800Z,7.70
2018-12-26T20:43:11.516Z,7.70
2018-12-26T20:45:52.017Z,7.70
2018-12-26T20:48:32.821Z,7.60
2018-12-26T20:51:13.478Z,7.60
2018-12-26T20:53:53.609Z,7.60
2018-12-26T20:56:34.194Z,7.60
2018-12-26T20:59:14.733Z,7.50
2018-12-26T21:01:55.347Z,8.20
2018-12-26T21:04:36.121Z,7.50
2018-12-26T21:10:29.305Z,7.60
2018-12-26T21:13:09.660Z,7.60
2018-12-26T21:15:50.589Z,7.60
2018-12-26T21:18:31.229Z,7.60
2018-12-26T21:21:11.768Z,7.60
2018-12-26T21:23:52.561Z,7.60
2018-12-26T21:26:32.961Z,7.60
2018-12-26T21:29:14.974Z,7.50
2018-12-26T21:31:55.480Z,7.70
2018-12-26T21:34:36.397Z,7.70
2018-12-26T21:37:17.289Z,7.50
2018-12-26T21:39:58.276Z,7.50
2018-12-26T21:42:39.047Z,7.60
2018-12-26T21:45:19.886Z,7.50
2018-12-26T21:48:00.797Z,7.60
2018-12-26T21:50:41.682Z,7.50
2018-12-26T21:53:22.145Z,7.50
2018-12-26T21:56:03.025Z,7.50
2018-12-26T21:58:43.676Z,7.60
2018-12-26T22:01:24.622Z,7.50
2018-12-26T22:06:47.737Z,7.50
2018-12-26T22:09:28.061Z,7.50
2018-12-26T22:12:09.161Z,7.40
2018-12-26T22:14:50.002Z,7.50
2018-12-26T22:17:30.500Z,7.40
2018-12-26T22:20:12.089Z,7.50
2018-12-26T22:22:53.008Z,7.40
2018-12-26T22:25:33.736Z,7.40
2018-12-26T22:28:14.165Z,7.40
2018-12-26T22:30:54.996Z,7.30
2018-12-26T22:33:35.556Z,7.30
2018-12-26T22:36:16.329Z,7.40
2018-12-26T22:38:56.874Z,7.30
2018-12-26T22:41:37.568Z,7.40
2018-12-26T22:44:18.211Z,7.40
2018-12-26T22:46:59.113Z,7.40
2018-12-26T22:49:39.873Z,7.30
2018-12-26T22:52:20.617Z,8.10
2018-12-26T22:55:01.510Z,8.40
2018-12-26T22:57:42.057Z,8.50
2018-12-26T23:00:24.191Z,7.90
2018-12-26T23:03:05.053Z,7.70
2018-12-26T23:08:58.180Z,7.60
2018-12-26T23:11:38.784Z,7.50
2018-12-26T23:14:19.717Z,7.40
2018-12-26T23:17:00.356Z,7.40
2018-12-26T23:19:41.174Z,7.40
2018-12-26T23:22:22.157Z,7.50
2018-12-26T23:25:02.797Z,7.70
2018-12-26T23:27:43.855Z,7.80
2018-12-26T23:30:24.682Z,7.60
2018-12-26T23:33:05.401Z,7.30
2018-12-26T23:35:46.215Z,7.20
2018-12-26T23:38:27.009Z,7.20
2018-12-26T23:41:07.894Z,7.20
2018-12-26T23:43:48.305Z,7.20
2018-12-26T23:46:28.876Z,7.40
2018-12-26T23:49:09.418Z,7.30
2018-12-26T23:51:50.425Z,7.30
2018-12-26T23:54:30.837Z,7.40
2018-12-26T23:57:11.774Z,7.20
2018-12-26T23:59:52.471Z,7.20
